createdAt,value
2018-03-17T00:00:42.497Z,94.10
2018-03-17T00:05:45.721Z,94.50
2018-03-17T00:10:49.030Z,94.50
2018-03-17T00:15:52.244Z,94.80
2018-03-17T00:20:55.460Z,94.70
2018-03-17T00:25:58.748Z,94.30
2018-03-17T00:31:01.943Z,94.10
2018-03-17T00:36:05.158Z,94.60
2018-03-17T00:41:08.360Z,94.30
2018-03-17T00:46:12.589Z,93.60
2018-03-17T00:51:16.466Z,93.30
2018-03-17T00:56:19.849Z,93.20
2018-03-17T01:01:23.206Z,93.30
2018-03-17T01:06:26.475Z,92.70
2018-03-17T01:11:30.077Z,93.20
2018-03-17T01:16:34.347Z,93.20
2018-03-17T01:21:40.419Z,94.00
2018-03-17T01:26:43.650Z,93.90
2018-03-17T01:31:47.011Z,94.50
2018-03-17T01:36:50.943Z,95.10
2018-03-17T01:41:54.690Z,94.30
2018-03-17T01:46:57.915Z,94.30
2018-03-17T01:52:02.275Z,94.20
2018-03-17T01:57:05.540Z,94.00
2018-03-17T02:02:08.785Z,94.20
2018-03-17T02:07:11.999Z,93.30
2018-03-17T02:12:15.205Z,94.10
2018-03-17T02:17:20.040Z,95.00
2018-03-17T02:22:23.357Z,95.00
2018-03-17T02:27:26.961Z,94.40
2018-03-17T02:32:31.983Z,94.40
2018-03-17T02:37:35.223Z,93.50
2018-03-17T02:42:38.933Z,93.60
2018-03-17T02:47:42.266Z,93.60
2018-03-17T02:58:15.421Z,94.60
2018-03-17T03:03:18.685Z,95.00
2018-03-17T03:13:55.815Z,95.00
2018-03-17T03:18:59.033Z,94.90
2018-03-17T03:24:02.691Z,96.10
2018-03-17T03:29:06.989Z,96.20
2018-03-17T03:34:10.693Z,95.50
2018-03-17T03:39:14.433Z,94.30
2018-03-17T03:44:17.637Z,94.30
2018-03-17T03:49:20.935Z,95.00
2018-03-17T03:54:24.318Z,95.90
2018-03-17T03:59:28.115Z,95.00
2018-03-17T04:04:31.320Z,95.10
2018-03-17T04:09:34.655Z,95.60
2018-03-17T04:14:37.963Z,96.10
2018-03-17T04:19:42.334Z,96.50
2018-03-17T04:24:48.786Z,96.80
2018-03-17T04:29:52.415Z,97.00
2018-03-17T04:34:56.668Z,97.20
2018-03-17T04:39:59.876Z,97.20
2018-03-17T04:45:03.244Z,97.40
2018-03-17T04:50:06.872Z,98.30
2018-03-17T04:55:10.483Z,98.00
2018-03-17T05:00:14.108Z,97.70
2018-03-17T05:05:17.325Z,97.70
2018-03-17T05:10:20.531Z,97.70
2018-03-17T05:15:23.736Z,97.70
2018-03-17T05:20:26.933Z,98.10
2018-03-17T05:25:30.135Z,98.30
2018-03-17T05:30:33.366Z,97.80
2018-03-17T05:35:36.596Z,97.50
2018-03-17T05:40:39.924Z,97.30
2018-03-17T05:45:43.137Z,97.60
2018-03-17T05:50:46.748Z,95.20
2018-03-17T05:55:49.949Z,95.20
2018-03-17T06:00:53.256Z,94.80
2018-03-17T06:05:56.463Z,94.90
2018-03-17T06:10:59.689Z,94.60
2018-03-17T06:16:03.095Z,94.80
2018-03-17T06:21:06.485Z,96.20
2018-03-17T06:26:09.709Z,96.10
2018-03-17T06:31:13.316Z,96.30
2018-03-17T06:36:17.023Z,96.30
2018-03-17T06:41:20.233Z,96.30
2018-03-17T06:46:23.520Z,96.60
2018-03-17T06:51:26.758Z,95.90
2018-03-17T06:56:30.855Z,95.70
2018-03-17T07:01:34.180Z,95.50
2018-03-17T07:06:37.788Z,92.10
2018-03-17T07:11:41.000Z,91.90
2018-03-17T07:16:44.667Z,89.90
2018-03-17T07:21:47.881Z,89.90
2018-03-17T07:26:51.198Z,88.40
2018-03-17T07:31:54.479Z,86.30
2018-03-17T07:36:57.684Z,85.30
2018-03-17T07:42:00.916Z,83.30
2018-03-17T07:47:04.256Z,82.30
2018-03-17T07:52:07.513Z,82.40
2018-03-17T07:57:10.743Z,82.10
2018-03-17T08:02:13.969Z,82.00
2018-03-17T08:07:17.182Z,82.20
2018-03-17T08:12:20.795Z,80.90
2018-03-17T08:17:24.489Z,80.90
2018-03-17T08:22:27.749Z,80.90
2018-03-17T08:27:31.070Z,81.40
2018-03-17T08:32:34.278Z,81.30
2018-03-17T08:37:37.978Z,81.80
2018-03-17T08:42:41.202Z,81.70
2018-03-17T08:47:44.589Z,82.20
2018-03-17T08:52:47.801Z,82.70
2018-03-17T08:57:51.019Z,83.00
2018-03-17T09:02:54.235Z,82.70
2018-03-17T09:07:57.453Z,83.80
2018-03-17T09:13:00.791Z,82.30
2018-03-17T09:18:04.499Z,82.10
2018-03-17T09:23:07.676Z,82.10
2018-03-17T09:28:13.122Z,81.80
2018-03-17T09:33:16.578Z,81.00
2018-03-17T09:38:20.235Z,81.30
2018-03-17T09:43:23.628Z,80.00
2018-03-17T09:48:27.302Z,79.80
2018-03-17T09:53:30.858Z,79.80
2018-03-17T09:58:34.588Z,79.70
2018-03-17T10:03:38.930Z,79.70
2018-03-17T10:08:42.802Z,78.90
2018-03-17T10:13:46.881Z,78.50
2018-03-17T10:18:51.681Z,78.50
2018-03-17T10:23:56.117Z,80.20
2018-03-17T10:28:59.839Z,78.60
2018-03-17T10:34:03.564Z,78.60
2018-03-17T10:39:06.792Z,78.60
2018-03-17T10:44:10.025Z,78.10
2018-03-17T10:49:13.240Z,80.00
2018-03-17T10:54:16.580Z,80.30
2018-03-17T11:06:23.021Z,80.20
2018-03-17T11:11:26.313Z,80.20
2018-03-17T11:16:30.010Z,79.70
2018-03-17T11:21:33.227Z,79.70
2018-03-17T11:26:36.845Z,78.50
2018-03-17T11:31:40.451Z,78.70
2018-03-17T11:36:43.836Z,78.70
2018-03-17T11:41:47.072Z,78.60
2018-03-17T11:46:50.330Z,79.40
2018-03-17T11:51:53.556Z,79.00
2018-03-17T11:56:56.922Z,80.30
2018-03-17T12:02:00.136Z,80.50
2018-03-17T12:07:03.406Z,81.30
2018-03-17T12:12:07.117Z,82.70
2018-03-17T12:17:10.806Z,82.70
2018-03-17T12:22:14.035Z,82.70
2018-03-17T12:27:17.634Z,83.30
2018-03-17T12:32:20.867Z,83.30
2018-03-17T12:37:24.503Z,83.40
2018-03-17T12:42:27.773Z,83.40
2018-03-17T12:47:31.008Z,83.60
2018-03-17T12:52:34.248Z,83.80
2018-03-17T12:57:37.488Z,83.30
2018-03-17T13:02:40.712Z,84.80
2018-03-17T13:07:44.328Z,86.40
2018-03-17T13:12:47.931Z,86.60
2018-03-17T13:17:51.220Z,86.40
2018-03-17T13:23:06.423Z,87.30
2018-03-17T13:28:29.610Z,87.40
2018-03-17T13:33:33.283Z,88.20
2018-03-17T13:38:36.487Z,88.20
2018-03-17T13:43:39.721Z,87.90
2018-03-17T13:48:42.956Z,88.40
2018-03-17T13:53:46.164Z,88.40
2018-03-17T13:58:49.391Z,88.90
2018-03-17T14:03:52.658Z,89.10
2018-03-17T14:08:56.276Z,89.30
2018-03-17T14:13:59.892Z,89.10
2018-03-17T14:19:03.497Z,89.50
2018-03-17T14:24:07.135Z,89.60
2018-03-17T14:29:10.384Z,89.50
2018-03-17T14:34:13.630Z,90.20
2018-03-17T14:39:17.255Z,90.40
2018-03-17T14:44:20.873Z,90.50
2018-03-17T14:49:24.103Z,90.50
2018-03-17T14:54:27.299Z,91.00
2018-03-17T14:59:30.521Z,91.00
2018-03-17T15:04:33.769Z,91.10
2018-03-17T15:09:37.300Z,91.50
2018-03-17T15:14:42.474Z,91.60
2018-03-17T15:19:45.730Z,91.60
2018-03-17T15:24:49.367Z,92.00
2018-03-17T15:29:53.091Z,91.80
2018-03-17T15:34:56.328Z,91.80
2018-03-17T15:39:59.572Z,91.50
2018-03-17T15:45:02.902Z,91.90
2018-03-17T15:50:06.139Z,92.10
2018-03-17T15:55:09.408Z,92.30
2018-03-17T16:00:13.041Z,93.20
2018-03-17T16:05:16.256Z,93.20
2018-03-17T16:10:19.471Z,93.70
2018-03-17T16:15:22.722Z,93.80
2018-03-17T16:20:26.214Z,93.60
2018-03-17T16:25:29.547Z,93.50
2018-03-17T16:30:32.801Z,94.20
2018-03-17T16:35:36.022Z,94.00
2018-03-17T16:40:39.255Z,94.70
2018-03-17T16:45:42.508Z,94.20
2018-03-17T16:50:45.721Z,94.10
2018-03-17T16:55:48.991Z,93.80
2018-03-17T17:00:52.655Z,94.30
2018-03-17T17:05:57.037Z,94.30
2018-03-17T17:11:00.672Z,93.60
2018-03-17T17:16:05.903Z,93.40
2018-03-17T17:21:09.206Z,93.40
2018-03-17T17:26:12.518Z,93.30
2018-03-17T17:31:15.925Z,93.40
2018-03-17T17:36:19.539Z,92.90
2018-03-17T17:41:23.255Z,92.90
2018-03-17T17:46:27.114Z,93.00
2018-03-17T17:57:12.673Z,92.60
2018-03-17T18:02:16.846Z,92.10
2018-03-17T18:07:20.707Z,92.30
2018-03-17T18:12:24.757Z,92.00
2018-03-17T18:17:30.653Z,92.00
2018-03-17T18:22:34.273Z,91.80
2018-03-17T18:27:37.899Z,92.30
2018-03-17T18:32:41.122Z,92.30
2018-03-17T18:37:44.414Z,92.80
2018-03-17T18:42:48.636Z,93.40
2018-03-17T18:47:54.379Z,93.60
2018-03-17T18:52:57.634Z,93.60
2018-03-17T18:58:01.137Z,94.30
2018-03-17T19:03:04.370Z,94.20
2018-03-17T19:08:07.597Z,94.30
2018-03-17T19:13:11.284Z,93.90
2018-03-17T19:18:14.713Z,93.70
2018-03-17T19:23:17.997Z,93.60
2018-03-17T19:28:21.227Z,93.90
2018-03-17T19:33:24.849Z,95.00
2018-03-17T19:38:28.334Z,95.00
2018-03-17T19:43:31.680Z,95.40
2018-03-17T19:48:34.935Z,95.80
2018-03-17T19:53:38.260Z,96.10
2018-03-17T19:58:41.894Z,96.00
2018-03-17T20:03:45.108Z,96.00
2018-03-17T20:08:49.277Z,96.20
2018-03-17T20:13:53.026Z,96.40
2018-03-17T20:18:56.949Z,96.40
2018-03-17T20:24:00.323Z,96.60
2018-03-17T20:29:03.730Z,96.40
2018-03-17T20:34:07.992Z,96.70
2018-03-17T20:39:11.572Z,96.60
2018-03-17T20:44:15.594Z,97.50
2018-03-17T20:49:18.952Z,97.50
2018-03-17T20:54:23.205Z,97.40
2018-03-17T20:59:26.434Z,98.10
2018-03-17T21:04:29.704Z,97.90
2018-03-17T21:09:32.927Z,97.80
2018-03-17T21:14:36.484Z,97.70
2018-03-17T21:19:40.005Z,96.90
2018-03-17T21:24:43.231Z,96.80
2018-03-17T21:29:46.913Z,95.20
2018-03-17T21:34:50.593Z,95.90
2018-03-17T21:39:53.950Z,95.90
2018-03-17T21:44:57.661Z,95.60
2018-03-17T21:50:00.951Z,95.60
2018-03-17T21:55:04.362Z,95.90
2018-03-17T22:00:08.276Z,96.50
2018-03-17T22:05:14.264Z,96.50
2018-03-17T22:10:17.982Z,95.20
2018-03-17T22:15:27.618Z,96.50
2018-03-17T22:20:38.827Z,96.50
2018-03-17T22:25:44.247Z,95.80
2018-03-17T22:30:48.074Z,95.90
2018-03-17T22:35:51.437Z,95.90
2018-03-17T22:40:56.961Z,96.00
2018-03-17T22:46:00.182Z,96.10
2018-03-17T22:51:03.436Z,95.50
2018-03-17T22:56:06.966Z,95.90
2018-03-17T23:01:11.150Z,95.70
2018-03-17T23:06:15.044Z,95.60
2018-03-17T23:11:18.587Z,95.40
2018-03-17T23:16:22.757Z,95.80
2018-03-17T23:21:27.333Z,95.70
2018-03-17T23:26:30.547Z,95.30
2018-03-17T23:31:35.327Z,95.30
2018-03-17T23:36:38.787Z,95.30
2018-03-17T23:41:43.892Z,95.50
2018-03-17T23:46:48.272Z,94.30
2018-03-17T23:51:51.992Z,94.50
2018-03-17T23:56:56.734Z,94.40
